This is the latest recevied weather packets stored in our database for station/object IU1OPQ-3. If no packets are shown the sender has not sent any weather packets the latest 10 day(s).
| Time | Temp. | Humidity | Pressure | Rain* | Wind** | Luminosity | Snow |
|---|---|---|---|---|---|---|---|
| 1788447600 | 30° C | 39% | 1019.3 hPa | 0 mm | - | - | - |
| 1788446401 | 30° C | 39% | 1019.3 hPa | 0 mm | - | - | - |
| 1788445201 | 31.11° C | 38% | 1019.6 hPa | 0 mm | - | - | - |
| 1788444000 | 29.44° C | 42% | 1019.8 hPa | 0 mm | - | - | - |
| 1788442801 | 28.89° C | 44% | 1020 hPa | 0 mm | - | - | - |
| 1788441601 | 29.44° C | 44% | 1020.2 hPa | 0 mm | - | - | - |
| 1788440401 | 29.44° C | 44% | 1020.2 hPa | 0 mm | - | - | - |
| 1788439201 | 29.44° C | 45% | 1020.1 hPa | 0 mm | - | - | - |
| 1788438000 | 27.78° C | 49% | 1020.2 hPa | 0 mm | - | - | - |
| 1788436801 | 27.78° C | 48% | 1020.2 hPa | 0 mm | - | - | - |
| 1788435600 | 26.67° C | 53% | 1020.4 hPa | 0 mm | - | - | - |
| 1788434400 | 26.67° C | 53% | 1020.7 hPa | 0 mm | - | - | - |
| 1788433201 | 25.56° C | 55% | 1021 hPa | 0 mm | - | - | - |
| 1788432000 | 25.56° C | 57% | 1021.1 hPa | 0 mm | - | - | - |
| 1788430801 | 25° C | 59% | 1021.3 hPa | 0 mm | - | - | - |
| 1788429602 | 25° C | 60% | 1021.5 hPa | 0 mm | - | - | - |
| 1788428401 | 24.44° C | 61% | 1021.5 hPa | 0 mm | - | - | - |
| 1788427201 | 23.89° C | 64% | 1021.6 hPa | 0 mm | - | - | - |
| 1788426001 | 23.33° C | 67% | 1021.6 hPa | 0 mm | - | - | - |
| 1788424801 | 22.78° C | 69% | 1021.6 hPa | 0 mm | - | - | - |
| 1788423600 | 22.22° C | 70% | 1021.4 hPa | 0 mm | - | - | - |
| 1788422400 | 21.67° C | 71% | 1021.2 hPa | 0 mm | - | - | - |
| 1788421201 | 21.67° C | 72% | 1021 hPa | 0 mm | - | - | - |
| 1788420001 | 21.11° C | 72% | 1021 hPa | 0 mm | - | - | - |
| 1788418801 | 21.11° C | 72% | 1020.9 hPa | 0 mm | - | - | - |
* Rain latest hour (hover to see other rain measurements)
** Current wind speed in m/s (hover to see current wind gust speed)